Time;durP1;ratioP1;P1;durP2;ratioP2;P2;SDS_P1;SDS_P2;PMS_P1;PMS_P2;Temp;Humidity;BMP_temperature;BMP_pressure;BME280_temperature;BME280_humidity;BME280_pressure;Samples;Min_cycle;Max_cycle;Signal;HPM_P1;HPM_P2
2022/03/13 00:00:25;;;;;;;40.15;22.58;;;-0.10;99.90;;;;;;4998053;28;20364;-92
2022/03/13 00:02:54;;;;;;;69.45;37.70;;;-0.10;99.90;;;;;;4997339;28;20114;-92
2022/03/13 00:05:19;;;;;;;37.33;21.85;;;-0.10;99.90;;;;;;4997044;28;20029;-92
2022/03/13 00:07:51;;;;;;;40.92;24.20;;;0.00;99.90;;;;;;4997246;28;20026;-91
2022/03/13 00:10:19;;;;;;;36.50;21.75;;;-0.10;99.90;;;;;;4997277;28;20026;-92
2022/03/13 00:12:48;;;;;;;38.08;23.25;;;0.00;99.90;;;;;;4997899;28;20026;-92
2022/03/13 00:15:24;;;;;;;63.55;34.95;;;0.00;99.90;;;;;;4997102;28;20036;-92
2022/03/13 00:17:53;;;;;;;47.53;25.42;;;0.00;99.90;;;;;;4997356;28;20025;-92
2022/03/13 00:20:20;;;;;;;62.50;34.75;;;0.00;99.90;;;;;;4996878;28;20025;-92
2022/03/13 00:22:46;;;;;;;53.63;28.95;;;0.00;99.90;;;;;;4997718;28;20360;-91
2022/03/13 00:25:12;;;;;;;38.00;22.88;;;0.00;99.90;;;;;;4997068;28;20109;-91
2022/03/13 00:27:38;;;;;;;51.05;25.73;;;0.00;99.90;;;;;;4997086;28;20113;-91
2022/03/13 00:30:07;;;;;;;37.05;22.48;;;0.00;99.90;;;;;;4997215;28;20053;-90
2022/03/13 00:32:33;;;;;;;53.67;26.95;;;0.00;99.90;;;;;;4997410;28;20026;-91
2022/03/13 00:34:59;;;;;;;51.70;27.45;;;0.00;99.90;;;;;;4996750;28;20040;-91
2022/03/13 00:37:25;;;;;;;44.88;23.80;;;0.00;99.90;;;;;;4996817;28;20051;-91
2022/03/13 00:39:51;;;;;;;38.50;23.05;;;0.00;99.90;;;;;;4996722;28;20026;-92
2022/03/13 00:42:17;;;;;;;52.65;30.55;;;-0.10;99.90;;;;;;4997270;28;20029;-91
2022/03/13 00:44:43;;;;;;;59.22;32.13;;;-0.10;99.90;;;;;;4996678;28;20182;-91
2022/03/13 00:47:09;;;;;;;39.42;22.33;;;-0.10;99.90;;;;;;4997174;28;20389;-91
2022/03/13 00:49:35;;;;;;;42.63;24.30;;;-0.20;99.90;;;;;;4996929;28;20034;-91
2022/03/13 00:52:04;;;;;;;35.42;20.15;;;-0.20;99.90;;;;;;4996949;28;20025;-90
2022/03/13 00:54:29;;;;;;;38.10;22.23;;;-0.20;99.90;;;;;;4996767;28;20029;-91
2022/03/13 00:56:55;;;;;;;46.88;26.67;;;-0.20;99.90;;;;;;4997030;28;20092;-91
2022/03/13 00:59:21;;;;;;;38.33;22.25;;;-0.20;99.90;;;;;;4997855;28;20030;-90
2022/03/13 01:01:48;;;;;;;71.60;35.22;;;-0.20;99.90;;;;;;4997373;28;20022;-90
2022/03/13 01:04:14;;;;;;;117.53;58.75;;;-0.20;99.90;;;;;;4998943;28;20030;-90
2022/03/13 01:06:41;;;;;;;56.40;29.30;;;-0.20;99.90;;;;;;5000939;28;20030;-92
2022/03/13 01:09:07;;;;;;;78.43;46.95;;;-0.20;99.90;;;;;;5000242;28;20029;-91
2022/03/13 01:11:33;;;;;;;66.20;41.97;;;-0.20;99.90;;;;;;5000017;28;20370;-91
2022/03/13 01:13:59;;;;;;;45.63;29.90;;;-0.20;99.90;;;;;;5000027;28;20026;-90
2022/03/13 01:16:34;;;;;;;49.35;30.45;;;-0.20;99.90;;;;;;5000047;28;20048;-90
2022/03/13 01:19:00;;;;;;;40.00;22.73;;;-0.10;99.90;;;;;;5008658;28;20025;-90
2022/03/13 01:21:31;;;;;;;35.80;21.58;;;-0.10;99.90;;;;;;5019638;28;20053;-90
2022/03/13 01:24:00;;;;;;;34.70;20.85;;;-0.20;99.90;;;;;;5019527;28;20033;-90
2022/03/13 01:26:25;;;;;;;37.15;20.40;;;-0.20;99.90;;;;;;5019433;28;20388;-90
2022/03/13 01:28:59;;;;;;;34.88;18.58;;;-0.20;99.90;;;;;;5019487;28;20087;-90
2022/03/13 01:31:27;;;;;;;38.63;20.00;;;-0.20;99.90;;;;;;5019302;28;20033;-90
2022/03/13 01:33:53;;;;;;;36.85;20.35;;;-0.20;99.90;;;;;;5000826;28;20037;-96
2022/03/13 01:36:20;;;;;;;39.67;21.02;;;-0.20;99.90;;;;;;4999969;28;20018;-96
2022/03/13 01:38:46;;;;;;;44.80;22.65;;;-0.20;99.90;;;;;;5001576;28;20025;-96
2022/03/13 01:41:12;;;;;;;36.72;20.42;;;-0.20;99.90;;;;;;5006530;28;20492;-96
2022/03/13 01:47:03;;;;;;;42.50;21.23;;;-0.20;99.90;;;;;;5020261;28;20028;-96
2022/03/13 01:49:29;;;;;;;40.45;21.88;;;-0.20;99.90;;;;;;5000131;28;20496;-96
2022/03/13 01:51:56;;;;;;;40.80;21.88;;;-0.20;99.90;;;;;;5000520;28;20030;-96
2022/03/13 01:54:22;;;;;;;40.17;23.33;;;-0.20;99.90;;;;;;4999631;28;20026;-96
2022/03/13 01:56:48;;;;;;;38.85;22.08;;;-0.30;99.90;;;;;;4999560;28;20469;-96
2022/03/13 01:59:14;;;;;;;42.13;20.88;;;-0.30;99.90;;;;;;4999830;28;20033;-96
2022/03/13 02:01:41;;;;;;;38.38;22.15;;;-0.30;99.90;;;;;;5000232;28;20022;-96
2022/03/13 02:04:07;;;;;;;39.08;21.73;;;-0.30;99.90;;;;;;5005100;28;20091;-96
2022/03/13 02:06:33;;;;;;;36.72;21.48;;;-0.30;99.90;;;;;;5003810;28;20053;-96
2022/03/13 02:09:00;;;;;;;32.65;19.55;;;-0.30;99.90;;;;;;5005445;28;20030;-96
2022/03/13 02:11:36;;;;;;;29.13;17.33;;;-0.30;99.90;;;;;;5004853;28;20465;-96
2022/03/13 02:14:05;;;;;;;34.90;21.50;;;-0.30;99.90;;;;;;5000539;28;20034;-96
2022/03/13 02:16:52;;;;;;;30.35;19.15;;;-0.30;99.90;;;;;;5016573;28;20017;-96
2022/03/13 02:19:18;;;;;;;31.80;18.63;;;-0.40;99.90;;;;;;5000174;28;20030;-96
2022/03/13 02:21:51;;;;;;;28.02;16.23;;;-0.40;99.90;;;;;;5002620;28;20056;-96
2022/03/13 02:24:23;;;;;;;26.60;16.35;;;-0.40;99.90;;;;;;5005124;28;20026;-96
2022/03/13 02:27:04;;;;;;;24.85;14.25;;;-0.40;99.90;;;;;;5004541;28;20026;-96
2022/03/13 02:29:31;;;;;;;24.80;14.48;;;-0.40;99.90;;;;;;5005358;28;20061;-96
2022/03/13 02:32:05;;;;;;;25.85;14.88;;;-0.40;99.90;;;;;;5006241;28;20126;-96
2022/03/13 02:34:40;;;;;;;22.63;14.30;;;-0.40;99.90;;;;;;5025564;28;20152;-96
2022/03/13 02:37:33;;;;;;;22.95;12.90;;;-0.40;99.90;;;;;;5006366;28;20022;-96
2022/03/13 02:40:00;;;;;;;22.63;12.77;;;-0.40;99.90;;;;;;5000471;23;20055;-96
2022/03/13 02:42:25;;;;;;;25.35;13.75;;;-0.40;99.90;;;;;;4959357;29;20133;-96
2022/03/13 02:44:51;;;;;;;24.42;13.48;;;-0.40;99.90;;;;;;4965653;29;20055;-96
2022/03/13 02:47:19;;;;;;;21.92;12.98;;;-0.40;99.90;;;;;;4970597;29;20030;-96
2022/03/13 02:49:46;;;;;;;24.15;13.23;;;-0.40;99.90;;;;;;4973549;28;20050;-96
2022/03/13 02:52:13;;;;;;;23.58;12.93;;;-0.40;99.90;;;;;;4966598;29;20027;-96
2022/03/13 02:54:39;;;;;;;25.88;14.20;;;-0.40;99.90;;;;;;4971147;28;20026;-96
2022/03/13 02:57:06;;;;;;;25.70;14.40;;;-0.40;99.90;;;;;;5301627;23;20062;-96
2022/03/13 02:59:32;;;;;;;27.45;14.55;;;-0.40;99.90;;;;;;4995445;28;20030;-96
2022/03/13 03:02:02;;;;;;;21.67;12.98;;;-0.50;99.90;;;;;;5049227;23;20081;-96
2022/03/13 03:04:38;;;;;;;21.50;12.93;;;-0.40;99.90;;;;;;5012431;28;20082;-96
2022/03/13 03:07:06;;;;;;;23.48;12.98;;;-0.50;99.90;;;;;;5013480;28;20030;-96
2022/03/13 03:09:33;;;;;;;27.77;14.52;;;-0.50;99.90;;;;;;4993762;28;20042;-96
2022/03/13 03:12:01;;;;;;;24.60;14.13;;;-0.50;99.90;;;;;;4993087;28;20033;-96
2022/03/13 03:14:35;;;;;;;25.85;13.57;;;-0.50;99.90;;;;;;4994997;28;20026;-96
2022/03/13 03:17:02;;;;;;;22.95;13.73;;;-0.50;99.90;;;;;;5265466;23;20501;-96
2022/03/13 03:19:56;;;;;;;26.63;14.30;;;-0.50;99.90;;;;;;5012642;28;20030;-96
2022/03/13 03:22:22;;;;;;;26.88;13.77;;;-0.60;99.90;;;;;;4995371;28;20022;-96
2022/03/13 03:25:03;;;;;;;26.42;13.38;;;-0.50;99.90;;;;;;4995541;28;20034;-96
2022/03/13 03:27:49;;;;;;;25.33;14.50;;;-0.50;99.90;;;;;;5001582;28;20023;-96
2022/03/13 03:33:55;;;;;;;24.50;14.05;;;-0.50;99.90;;;;;;4938849;29;20083;-96
2022/03/13 03:36:21;;;;;;;45.78;17.13;;;-0.50;99.90;;;;;;4937216;29;20027;-96
2022/03/13 03:38:47;;;;;;;26.85;14.98;;;-0.50;99.90;;;;;;4938869;29;20499;-96
2022/03/13 03:41:13;;;;;;;23.35;13.55;;;-0.50;99.90;;;;;;4942891;29;20116;-96
2022/03/13 03:43:39;;;;;;;27.67;14.35;;;-0.50;99.90;;;;;;4941619;29;20059;-96
2022/03/13 03:46:04;;;;;;;26.10;14.05;;;-0.60;99.90;;;;;;4938529;29;20118;-96
2022/03/13 03:48:31;;;;;;;37.88;15.75;;;-0.60;99.90;;;;;;4938476;29;20055;-96
2022/03/13 03:50:57;;;;;;;29.45;14.73;;;-0.50;99.90;;;;;;4923076;29;20035;-96
2022/03/13 03:53:24;;;;;;;40.60;15.55;;;-0.50;99.90;;;;;;4948863;29;20031;-96
2022/03/13 03:55:50;;;;;;;26.45;14.57;;;-0.50;99.90;;;;;;4934596;29;20036;-96
2022/03/13 03:58:21;;;;;;;24.45;13.18;;;-0.50;99.90;;;;;;4945403;29;20059;-96
2022/03/13 04:00:47;;;;;;;22.30;12.20;;;-0.40;99.90;;;;;;4948334;29;20079;-96
2022/03/13 04:05:57;;;;;;;17.85;10.77;;;-0.40;99.90;;;;;;5322066;23;20505;-90
2022/03/13 04:08:23;;;;;;;21.27;12.23;;;-0.40;99.90;;;;;;4993729;28;20035;-90
2022/03/13 04:10:49;;;;;;;21.23;12.40;;;-0.40;99.90;;;;;;4997153;28;20112;-90
2022/03/13 04:13:14;;;;;;;22.80;12.20;;;-0.40;99.90;;;;;;4996891;28;20064;-90
2022/03/13 04:15:40;;;;;;;22.15;12.68;;;-0.30;99.90;;;;;;4998009;28;20022;-96
2022/03/13 04:18:10;;;;;;;21.45;12.48;;;-0.40;99.90;;;;;;4996987;28;20068;-90
2022/03/13 04:20:36;;;;;;;19.48;11.13;;;-0.40;99.90;;;;;;4997139;28;20105;-89
2022/03/13 04:23:02;;;;;;;19.23;11.75;;;-0.40;99.90;;;;;;4996896;28;20064;-89
2022/03/13 04:25:28;;;;;;;20.50;11.00;;;-0.40;99.90;;;;;;4996790;28;20029;-91
2022/03/13 04:27:59;;;;;;;20.40;11.68;;;-0.30;99.90;;;;;;4996933;28;20075;-90
2022/03/13 04:30:29;;;;;;;21.45;11.85;;;-0.40;99.90;;;;;;4996894;28;20498;-90
2022/03/13 04:32:56;;;;;;;22.25;12.43;;;-0.40;99.90;;;;;;4996686;28;20033;-89
2022/03/13 04:35:22;;;;;;;21.98;12.75;;;-0.40;99.90;;;;;;4996991;28;20164;-90
2022/03/13 04:37:47;;;;;;;21.65;12.80;;;-0.40;99.90;;;;;;4996864;28;20053;-89
2022/03/13 04:40:13;;;;;;;19.23;11.80;;;-0.40;99.90;;;;;;5000491;28;20033;-89
2022/03/13 04:42:39;;;;;;;22.15;12.18;;;-0.40;99.90;;;;;;5000379;28;20022;-89
2022/03/13 04:45:06;;;;;;;25.15;13.75;;;-0.40;99.90;;;;;;5000454;28;20030;-90
2022/03/13 04:47:32;;;;;;;21.05;11.93;;;-0.40;99.90;;;;;;5000379;28;20053;-90
2022/03/13 04:49:59;;;;;;;21.10;12.45;;;-0.40;99.90;;;;;;5000745;28;20030;-88
2022/03/13 04:52:25;;;;;;;48.80;31.02;;;-0.30;99.90;;;;;;5001570;28;20040;-90
2022/03/13 04:54:51;;;;;;;35.15;16.83;;;-0.30;99.90;;;;;;5000564;28;20029;-93
2022/03/13 04:57:18;;;;;;;28.75;15.00;;;-0.30;99.90;;;;;;5000448;28;20029;-92
2022/03/13 04:59:43;;;;;;;25.10;13.75;;;-0.30;99.90;;;;;;5000255;28;20026;-91
2022/03/13 05:02:09;;;;;;;32.30;15.75;;;-0.20;99.90;;;;;;4998552;28;20457;-92
2022/03/13 05:04:35;;;;;;;22.50;12.55;;;-0.20;99.90;;;;;;4995928;28;20041;-91
2022/03/13 05:07:01;;;;;;;23.90;13.20;;;-0.20;99.90;;;;;;5000004;28;20053;-90
2022/03/13 05:09:27;;;;;;;21.33;12.85;;;-0.20;99.90;;;;;;5000495;28;20030;-90
2022/03/13 05:11:54;;;;;;;53.45;23.20;;;-0.20;99.90;;;;;;5000180;28;20029;-90
2022/03/13 05:14:20;;;;;;;33.25;17.25;;;-0.20;99.90;;;;;;5000951;28;20030;-90
2022/03/13 05:17:00;;;;;;;41.95;19.20;;;-0.20;99.90;;;;;;5072292;28;20379;-91
2022/03/13 05:19:25;;;;;;;39.00;17.17;;;-0.20;99.90;;;;;;5070613;28;20545;-90
2022/03/13 05:21:51;;;;;;;27.33;14.75;;;-0.20;99.90;;;;;;5070850;28;20115;-90
2022/03/13 05:24:17;;;;;;;35.78;17.50;;;-0.30;99.90;;;;;;5070524;28;20051;-91
2022/03/13 05:26:44;;;;;;;31.05;14.98;;;-0.20;99.90;;;;;;5070533;28;20021;-91
2022/03/13 05:29:10;;;;;;;59.70;24.90;;;-0.20;99.90;;;;;;5070493;28;20024;-94
2022/03/13 05:31:36;;;;;;;61.33;25.98;;;-0.20;99.90;;;;;;5067718;28;20467;-91
2022/03/13 05:34:01;;;;;;;33.30;17.20;;;-0.10;99.90;;;;;;5049963;28;20124;-90
2022/03/13 05:36:27;;;;;;;28.48;15.45;;;-0.10;99.90;;;;;;5050349;28;20108;-91
2022/03/13 05:38:53;;;;;;;25.35;14.23;;;-0.10;99.90;;;;;;5050223;28;20175;-90
2022/03/13 05:41:22;;;;;;;24.38;13.80;;;-0.10;99.90;;;;;;5050107;28;20022;-90
2022/03/13 05:43:49;;;;;;;24.45;14.45;;;-0.10;99.90;;;;;;5050118;28;20026;-89
2022/03/13 05:46:15;;;;;;;27.05;15.82;;;-0.10;99.90;;;;;;5049101;28;20033;-90
2022/03/13 05:48:41;;;;;;;26.27;13.75;;;-0.10;99.90;;;;;;5049384;28;20040;-90
2022/03/13 05:51:07;;;;;;;25.90;14.35;;;-0.10;99.90;;;;;;5049555;28;20029;-89
2022/03/13 05:53:33;;;;;;;22.70;13.40;;;-0.10;99.90;;;;;;5048718;28;20124;-90
2022/03/13 05:55:59;;;;;;;20.42;12.95;;;0.10;99.90;;;;;;5049013;28;20415;-90
2022/03/13 05:58:25;;;;;;;23.10;13.13;;;0.10;99.90;;;;;;5049412;28;20045;-89
2022/03/13 06:01:08;;;;;;;21.58;11.95;;;0.30;99.90;;;;;;5049939;28;20523;-90
2022/03/13 06:03:34;;;;;;;21.17;12.43;;;0.30;99.90;;;;;;5049506;28;20032;-90
2022/03/13 06:06:01;;;;;;;30.73;14.20;;;0.40;99.90;;;;;;5049464;28;20033;-90
2022/03/13 06:08:27;;;;;;;21.52;12.90;;;0.40;99.90;;;;;;5049046;28;20036;-90
2022/03/13 06:10:53;;;;;;;22.45;13.60;;;0.50;99.90;;;;;;5049381;28;20025;-90
2022/03/13 06:13:22;;;;;;;22.95;12.57;;;0.60;99.90;;;;;;5049637;28;20091;-90
2022/03/13 06:15:48;;;;;;;41.28;16.90;;;0.60;99.90;;;;;;5049165;28;20053;-90
2022/03/13 06:18:14;;;;;;;35.55;16.33;;;0.60;99.90;;;;;;5049795;28;20112;-90
2022/03/13 06:20:39;;;;;;;36.85;16.90;;;0.50;99.90;;;;;;5049315;28;20068;-90
2022/03/13 06:23:05;;;;;;;23.17;12.15;;;0.50;99.90;;;;;;5049417;28;20029;-90
2022/03/13 06:25:31;;;;;;;21.15;11.30;;;0.40;99.90;;;;;;5049270;28;20029;-90
2022/03/13 06:27:56;;;;;;;26.60;13.57;;;0.50;99.90;;;;;;5038399;28;20051;-91
2022/03/13 06:30:23;;;;;;;25.70;14.00;;;0.40;99.90;;;;;;5036034;28;20025;-94
2022/03/13 06:32:53;;;;;;;32.10;15.45;;;0.40;99.90;;;;;;5035906;28;20034;-96
2022/03/13 06:35:21;;;;;;;31.38;16.48;;;0.50;99.90;;;;;;5035980;28;20121;-96
2022/03/13 06:37:49;;;;;;;52.08;20.48;;;0.50;99.90;;;;;;5035773;28;20160;-95
2022/03/13 06:40:20;;;;;;;37.13;17.10;;;0.50;99.90;;;;;;5035510;28;20026;-94
2022/03/13 06:42:47;;;;;;;43.50;19.85;;;0.50;99.90;;;;;;5035810;28;20048;-94
2022/03/13 06:45:13;;;;;;;30.50;16.13;;;0.50;99.90;;;;;;5035703;28;20369;-94
2022/03/13 06:47:40;;;;;;;29.95;15.82;;;0.60;99.90;;;;;;5035486;28;20048;-93
2022/03/13 06:50:08;;;;;;;34.90;18.20;;;0.60;99.90;;;;;;5035636;28;20550;-94
2022/03/13 06:52:35;;;;;;;26.38;13.98;;;0.60;99.90;;;;;;5035349;28;20061;-94
2022/03/13 06:55:01;;;;;;;24.02;13.85;;;0.70;99.90;;;;;;5035265;28;20028;-94
2022/03/13 06:57:27;;;;;;;21.00;12.75;;;0.70;99.90;;;;;;5035471;28;20025;-94
2022/03/13 06:59:52;;;;;;;19.60;12.02;;;0.80;99.90;;;;;;5035592;28;20418;-94
2022/03/13 07:02:18;;;;;;;19.83;11.70;;;0.80;99.90;;;;;;5035747;28;20072;-94
2022/03/13 07:04:44;;;;;;;21.95;12.43;;;0.80;99.90;;;;;;5035667;28;20021;-94
2022/03/13 07:07:10;;;;;;;19.27;11.38;;;0.70;99.90;;;;;;5034825;28;20025;-94
2022/03/13 07:09:35;;;;;;;23.55;12.82;;;0.90;99.90;;;;;;5034883;28;20021;-94
2022/03/13 07:12:01;;;;;;;19.23;11.90;;;1.00;99.90;;;;;;5035282;28;20021;-92
2022/03/13 07:14:29;;;;;;;16.73;10.98;;;1.00;99.90;;;;;;5035539;28;20100;-94
2022/03/13 07:16:55;;;;;;;17.42;11.27;;;1.10;99.90;;;;;;5035355;28;20045;-93
2022/03/13 07:19:21;;;;;;;17.77;10.98;;;1.00;99.90;;;;;;5035158;28;20055;-92
2022/03/13 07:21:47;;;;;;;17.20;10.55;;;1.10;99.90;;;;;;5035169;28;20032;-92
2022/03/13 07:24:13;;;;;;;20.25;11.63;;;1.00;99.90;;;;;;5035301;28;20383;-93
2022/03/13 07:26:38;;;;;;;14.75;10.00;;;0.90;99.90;;;;;;5035324;28;20036;-93
2022/03/13 07:29:04;;;;;;;18.38;10.10;;;0.90;99.90;;;;;;5034804;28;20021;-93
2022/03/13 07:31:31;;;;;;;15.65;9.30;;;0.90;99.90;;;;;;5034928;28;20048;-93
2022/03/13 07:33:57;;;;;;;17.38;10.48;;;0.90;99.90;;;;;;5035330;28;20449;-92
2022/03/13 07:36:23;;;;;;;13.85;8.93;;;0.90;99.90;;;;;;5034715;28;20060;-92
2022/03/13 07:38:49;;;;;;;15.52;9.63;;;0.90;99.90;;;;;;5033885;28;20026;-92
2022/03/13 07:41:15;;;;;;;14.88;9.35;;;0.90;99.90;;;;;;5034758;28;20027;-92
2022/03/13 07:43:41;;;;;;;15.85;9.52;;;0.90;99.90;;;;;;5034746;28;20116;-91
2022/03/13 07:46:06;;;;;;;13.52;9.02;;;0.90;99.90;;;;;;5034665;28;20080;-91
2022/03/13 07:48:35;;;;;;;17.92;9.85;;;1.00;99.90;;;;;;5034718;28;20025;-92
2022/03/13 07:51:04;;;;;;;21.73;10.43;;;1.10;99.90;;;;;;5034675;28;20030;-92
2022/03/13 07:53:30;;;;;;;16.73;9.15;;;1.30;99.90;;;;;;5034597;28;20029;-91
2022/03/13 07:55:56;;;;;;;15.45;9.05;;;1.20;99.90;;;;;;5034229;28;20021;-91
2022/03/13 07:58:22;;;;;;;17.40;8.52;;;1.30;99.90;;;;;;5034316;28;20017;-91
2022/03/13 08:00:50;;;;;;;15.07;8.98;;;1.10;99.90;;;;;;5034245;28;20079;-91
2022/03/13 08:03:20;;;;;;;11.50;7.78;;;1.20;99.90;;;;;;5034405;28;20021;-91
2022/03/13 08:05:46;;;;;;;17.67;9.38;;;1.20;99.90;;;;;;5034500;28;20376;-91
2022/03/13 08:08:12;;;;;;;15.90;8.48;;;1.30;99.90;;;;;;5034326;28;20028;-91
2022/03/13 08:10:39;;;;;;;15.15;8.25;;;1.40;99.90;;;;;;5034374;28;20029;-91
2022/03/13 08:13:05;;;;;;;16.55;9.10;;;1.40;99.90;;;;;;5034024;28;20033;-91
2022/03/13 08:15:31;;;;;;;13.98;8.45;;;1.50;99.90;;;;;;5033913;28;20053;-91
2022/03/13 08:17:56;;;;;;;16.65;8.73;;;1.40;99.90;;;;;;5034037;28;20041;-91
2022/03/13 08:20:22;;;;;;;16.52;8.90;;;1.50;99.90;;;;;;5033963;28;20066;-91
2022/03/13 08:22:48;;;;;;;17.60;8.32;;;1.40;99.90;;;;;;5033980;28;20022;-91
2022/03/13 08:25:18;;;;;;;16.23;8.75;;;1.50;99.90;;;;;;5033811;28;20100;-91
2022/03/13 08:27:43;;;;;;;15.68;8.90;;;1.50;99.90;;;;;;5034316;28;20112;-92
2022/03/13 08:30:11;;;;;;;14.25;8.25;;;1.50;99.90;;;;;;5033778;28;20064;-91
2022/03/13 08:32:38;;;;;;;13.10;8.13;;;1.50;99.90;;;;;;5033866;28;20052;-91
2022/03/13 08:35:05;;;;;;;12.77;8.07;;;1.60;99.90;;;;;;5033634;28;20068;-92
2022/03/13 08:37:31;;;;;;;15.10;9.20;;;1.60;99.90;;;;;;5033679;28;20029;-91
2022/03/13 08:39:57;;;;;;;13.80;8.85;;;1.40;99.90;;;;;;5033710;28;20028;-91
2022/03/13 08:42:22;;;;;;;14.90;8.63;;;1.40;99.90;;;;;;5034228;28;20048;-91
2022/03/13 08:44:48;;;;;;;17.13;9.55;;;1.60;99.90;;;;;;5034276;28;20442;-89
2022/03/13 08:47:14;;;;;;;13.68;8.45;;;1.50;99.90;;;;;;5033892;28;20120;-91
2022/03/13 08:49:40;;;;;;;15.23;8.10;;;1.50;99.90;;;;;;5033775;28;20022;-91
2022/03/13 08:52:06;;;;;;;13.82;8.70;;;1.60;99.90;;;;;;5033719;28;20029;-90
2022/03/13 08:54:32;;;;;;;14.43;8.88;;;1.60;99.90;;;;;;5033398;28;20112;-92
2022/03/13 08:56:58;;;;;;;17.38;9.13;;;1.60;99.90;;;;;;5033291;28;20121;-91
2022/03/13 08:59:24;;;;;;;13.32;9.00;;;1.60;99.90;;;;;;5033508;28;20053;-91
2022/03/13 09:01:50;;;;;;;14.80;9.05;;;1.60;99.90;;;;;;5033263;28;20052;-92
2022/03/13 09:04:16;;;;;;;13.75;8.82;;;1.60;99.90;;;;;;5033249;28;20035;-91
2022/03/13 09:06:43;;;;;;;14.25;8.77;;;1.50;99.90;;;;;;5033345;28;20095;-91
2022/03/13 09:09:10;;;;;;;15.18;9.25;;;1.50;99.90;;;;;;5032978;28;20480;-91
2022/03/13 09:11:37;;;;;;;13.70;8.63;;;1.60;99.90;;;;;;5033354;28;20037;-92
2022/03/13 09:14:04;;;;;;;14.00;8.98;;;1.70;99.90;;;;;;5033436;28;20108;-91
2022/03/13 09:16:32;;;;;;;19.83;9.65;;;1.80;99.90;;;;;;5032995;28;20511;-92
2022/03/13 09:18:58;;;;;;;16.42;8.65;;;1.90;99.90;;;;;;5033116;28;20052;-91
2022/03/13 09:21:24;;;;;;;13.85;8.63;;;1.90;99.90;;;;;;5033421;28;20028;-91
2022/03/13 09:23:50;;;;;;;16.27;8.52;;;2.00;99.90;;;;;;5032924;28;20361;-92
2022/03/13 09:26:16;;;;;;;13.20;8.40;;;2.10;99.90;;;;;;5033050;28;20021;-91
2022/03/13 09:28:42;;;;;;;18.92;9.13;;;2.20;99.90;;;;;;5032857;28;20036;-91
2022/03/13 09:31:10;;;;;;;14.63;9.35;;;2.30;99.90;;;;;;5033200;28;20048;-91
2022/03/13 09:33:35;;;;;;;17.02;8.25;;;2.30;99.90;;;;;;5033250;28;20108;-91
2022/03/13 09:36:01;;;;;;;16.08;9.15;;;2.40;99.90;;;;;;5033190;28;20124;-91
2022/03/13 09:38:27;;;;;;;16.83;9.05;;;2.30;99.90;;;;;;5032988;28;20026;-91
2022/03/13 09:40:55;;;;;;;14.65;9.02;;;2.30;99.90;;;;;;5033057;28;20080;-91
2022/03/13 09:43:21;;;;;;;13.77;8.32;;;2.20;99.90;;;;;;5033017;28;20030;-91
2022/03/13 09:45:48;;;;;;;16.95;9.55;;;2.30;99.90;;;;;;5033169;28;20029;-90
2022/03/13 09:48:15;;;;;;;15.40;9.38;;;2.30;99.90;;;;;;5032914;28;20026;-91
2022/03/13 09:50:45;;;;;;;11.68;7.60;;;2.30;99.90;;;;;;5032769;28;20034;-91
2022/03/13 09:53:12;;;;;;;13.48;8.38;;;2.30;99.90;;;;;;5032941;28;20392;-90
2022/03/13 09:55:38;;;;;;;12.25;7.85;;;2.40;99.90;;;;;;5032959;28;20056;-90
2022/03/13 09:58:11;;;;;;;13.73;8.88;;;2.40;99.90;;;;;;5032972;28;20070;-90
2022/03/13 10:00:37;;;;;;;12.85;8.68;;;2.50;99.90;;;;;;5032908;28;20025;-91
2022/03/13 10:03:08;;;;;;;13.30;8.15;;;2.50;99.90;;;;;;5035351;28;20037;-91
2022/03/13 10:05:45;;;;;;;13.25;7.65;;;2.40;99.90;;;;;;5037598;28;20030;-91
2022/03/13 10:08:11;;;;;;;26.48;13.25;;;2.40;99.90;;;;;;5036408;28;20061;-90
2022/03/13 10:10:43;;;;;;;17.35;10.35;;;2.20;99.90;;;;;;5036582;28;20034;-90
2022/03/13 10:13:09;;;;;;;26.92;12.85;;;2.20;99.90;;;;;;5036419;28;20025;-90
2022/03/13 10:15:48;;;;;;;15.23;8.65;;;2.10;99.90;;;;;;5036238;28;20057;-90
2022/03/13 10:18:17;;;;;;;13.68;8.30;;;2.00;99.90;;;;;;5036341;28;20021;-91
2022/03/13 10:20:45;;;;;;;14.02;8.20;;;2.10;99.90;;;;;;5036429;28;20029;-90
2022/03/13 10:23:15;;;;;;;13.32;8.40;;;2.10;99.90;;;;;;5036358;28;20498;-90
2022/03/13 10:25:42;;;;;;;;;;;1.90;99.90;;;;;;5037107;28;20037;-90
2022/03/13 10:28:32;;;;;;;16.63;7.68;;;1.90;99.90;;;;;;5036124;28;19904;-90
2022/03/13 10:31:01;;;;;;;12.18;7.88;;;1.80;99.90;;;;;;5036256;28;20118;-90
2022/03/13 10:33:28;;;;;;;16.33;8.95;;;1.80;99.90;;;;;;5036240;28;20032;-90
2022/03/13 10:36:10;;;;;;;13.50;8.32;;;1.80;99.90;;;;;;5036214;28;20026;-90
2022/03/13 10:38:37;;;;;;;15.77;8.93;;;1.70;99.90;;;;;;5035796;28;20026;-90
2022/03/13 10:41:08;;;;;;;15.52;8.90;;;1.70;99.90;;;;;;5036335;28;20059;-90
2022/03/13 10:43:39;;;;;;;15.25;8.98;;;1.80;99.90;;;;;;5035695;28;20047;-90
2022/03/13 10:46:06;;;;;;;17.73;10.50;;;1.80;99.90;;;;;;5035967;28;20025;-90
2022/03/13 10:48:36;;;;;;;38.40;18.80;;;1.90;99.90;;;;;;5035641;28;20418;-90
2022/03/13 10:51:12;;;;;;;;;;;2.00;99.90;;;;;;5036230;28;20028;-90
2022/03/13 10:53:42;;;;;;;29.88;13.70;;;1.90;99.90;;;;;;5036666;28;19905;-90
2022/03/13 10:56:12;;;;;;;45.17;17.08;;;2.00;99.90;;;;;;5035567;28;20036;-90
2022/03/13 10:58:48;;;;;;;19.27;10.82;;;2.10;99.90;;;;;;5035573;28;20031;-90
2022/03/13 11:01:16;;;;;;;24.52;12.63;;;2.10;99.90;;;;;;5035629;28;20018;-89
2022/03/13 11:03:53;;;;;;;16.27;9.20;;;2.10;99.90;;;;;;5035846;28;20033;-90
2022/03/13 11:06:21;;;;;;;19.00;9.50;;;2.10;99.90;;;;;;5035422;28;20051;-89
2022/03/13 11:08:52;;;;;;;17.35;9.60;;;2.10;99.90;;;;;;5035215;28;20030;-89
2022/03/13 11:11:19;;;;;;;15.40;9.57;;;2.00;99.90;;;;;;5035467;28;20361;-90
2022/03/13 11:13:52;;;;;;;14.07;8.27;;;2.00;99.90;;;;;;5034984;28;20029;-89
2022/03/13 11:16:23;;;;;;;12.70;7.30;;;1.90;99.90;;;;;;5034938;28;20557;-89
2022/03/13 11:18:51;;;;;;;14.18;8.20;;;1.90;99.90;;;;;;5035165;28;20472;-89
2022/03/13 11:21:18;;;;;;;16.63;8.60;;;1.90;99.90;;;;;;5035238;28;20067;-89
2022/03/13 11:23:45;;;;;;;14.00;8.82;;;1.90;99.90;;;;;;5035038;28;20024;-90
2022/03/13 11:26:15;;;;;;;35.42;16.80;;;1.80;99.90;;;;;;5035155;28;20472;-90
2022/03/13 11:28:48;;;;;;;20.58;11.23;;;1.80;99.90;;;;;;5035151;28;20037;-90
2022/03/13 11:31:37;;;;;;;26.60;14.32;;;1.60;99.90;;;;;;5035355;28;20087;-90
2022/03/13 11:34:18;;;;;;;36.20;18.45;;;1.60;99.90;;;;;;5035162;28;20543;-89
2022/03/13 11:36:51;;;;;;;35.53;17.98;;;1.60;99.90;;;;;;5034873;28;20025;-89
2022/03/13 11:39:28;;;;;;;17.63;10.00;;;1.60;99.90;;;;;;5034778;28;20392;-89
2022/03/13 11:41:54;;;;;;;16.38;9.93;;;1.60;99.90;;;;;;5035223;28;20408;-89
2022/03/13 11:44:22;;;;;;;14.38;8.27;;;1.60;99.90;;;;;;5036011;28;20026;-89
2022/03/13 11:46:59;;;;;;;14.50;8.30;;;1.70;99.90;;;;;;5034897;28;20373;-90
2022/03/13 11:49:31;;;;;;;13.73;7.53;;;1.70;99.90;;;;;;5034904;28;20022;-89
2022/03/13 11:52:20;;;;;;;13.32;7.82;;;1.70;99.90;;;;;;5034756;28;20029;-89
2022/03/13 11:55:04;;;;;;;10.35;7.22;;;1.80;99.90;;;;;;5035539;28;20025;-89
2022/03/13 11:57:44;;;;;;;12.77;7.63;;;1.70;99.90;;;;;;5035955;28;20035;-89
2022/03/13 12:00:10;;;;;;;18.58;8.77;;;1.70;99.90;;;;;;5034398;28;20392;-89
2022/03/13 12:02:42;;;;;;;13.27;7.93;;;1.60;99.90;;;;;;5034541;28;20026;-90
2022/03/13 12:05:27;;;;;;;16.17;9.30;;;1.60;99.90;;;;;;5034300;28;20035;-90
2022/03/13 12:08:04;;;;;;;12.98;8.05;;;1.50;99.90;;;;;;5034336;28;20030;-90
2022/03/13 12:10:42;;;;;;;25.98;12.80;;;1.50;99.90;;;;;;5034025;28;20029;-91
2022/03/13 12:13:09;;;;;;;19.02;10.43;;;1.30;99.90;;;;;;5034236;28;20544;-90
2022/03/13 12:15:36;;;;;;;19.02;11.18;;;1.30;99.90;;;;;;5050267;28;20114;-90
2022/03/13 12:18:27;;;;;;;14.48;8.52;;;1.20;99.90;;;;;;5034244;28;20022;-91
2022/03/13 12:21:04;;;;;;;18.05;9.13;;;1.20;99.90;;;;;;5043673;28;20030;-90
2022/03/13 12:23:34;;;;;;;13.07;7.97;;;1.10;99.90;;;;;;5034034;28;20380;-90
2022/03/13 12:26:20;;;;;;;11.80;7.53;;;1.10;99.90;;;;;;5033567;28;20025;-89
2022/03/13 12:28:48;;;;;;;14.98;8.50;;;1.10;99.90;;;;;;5033897;28;20052;-90
2022/03/13 12:31:14;;;;;;;13.13;7.90;;;1.10;99.90;;;;;;5034104;28;20021;-90
2022/03/13 12:33:45;;;;;;;11.82;7.43;;;1.10;99.90;;;;;;5033617;28;20025;-90
2022/03/13 12:36:11;;;;;;;11.82;6.95;;;1.20;99.90;;;;;;5033768;28;20585;-89
2022/03/13 12:38:42;;;;;;;13.35;7.95;;;1.20;99.90;;;;;;5034002;28;20045;-89
2022/03/13 12:41:09;;;;;;;11.95;7.75;;;1.20;99.90;;;;;;5035040;28;20056;-89
2022/03/13 12:43:52;;;;;;;13.43;7.55;;;1.20;99.90;;;;;;5033325;28;20021;-90
2022/03/13 12:46:24;;;;;;;13.07;8.35;;;1.10;99.90;;;;;;5033599;28;20535;-89
2022/03/13 12:48:56;;;;;;;13.35;7.20;;;1.20;99.90;;;;;;5033631;28;20032;-89
2022/03/13 12:51:42;;;;;;;15.60;8.40;;;1.20;99.90;;;;;;5033930;28;20033;-90